createdAt,value
2023-04-10T00:02:00.637Z,8.01
2023-04-10T00:04:28.356Z,7.92
2023-04-10T00:06:55.473Z,8.03
2023-04-10T00:09:21.959Z,8.26
2023-04-10T00:11:48.642Z,8.35
2023-04-10T00:14:15.363Z,8.36
2023-04-10T00:16:41.870Z,8.25
2023-04-10T00:19:08.636Z,8.67
2023-04-10T00:21:35.054Z,8.54
2023-04-10T00:24:01.478Z,8.55
2023-04-10T00:26:27.921Z,8.64
2023-04-10T00:28:54.299Z,8.76
2023-04-10T00:31:20.852Z,8.85
2023-04-10T00:33:47.292Z,8.66
2023-04-10T00:36:13.795Z,8.75
2023-04-10T00:38:40.344Z,8.74
2023-04-10T00:41:07.158Z,8.70
2023-04-10T00:43:33.574Z,8.52
2023-04-10T00:46:00.337Z,8.66
2023-04-10T00:48:26.802Z,8.45
2023-04-10T00:50:53.231Z,8.38
2023-04-10T00:53:19.913Z,8.26
2023-04-10T00:55:46.900Z,8.24
2023-04-10T00:58:14.465Z,8.45
2023-04-10T01:00:41.461Z,8.33
2023-04-10T01:03:13.266Z,8.44
2023-04-10T01:05:52.282Z,8.11
2023-04-10T01:08:36.449Z,8.23
2023-04-10T01:11:12.903Z,8.46
2023-04-10T01:14:03.974Z,8.34
2023-04-10T01:16:46.519Z,8.43
2023-04-10T01:19:32.538Z,8.46
2023-04-10T01:22:02.052Z,8.70
2023-04-10T01:24:40.411Z,8.13
2023-04-10T01:27:29.116Z,8.20
2023-04-10T01:29:57.575Z,8.52
2023-04-10T01:32:24.614Z,8.40
2023-04-10T01:34:54.417Z,8.21
2023-04-10T01:37:27.419Z,8.63
2023-04-10T01:40:03.988Z,8.79
2023-04-10T01:42:38.985Z,8.68
2023-04-10T01:45:09.055Z,8.65
2023-04-10T01:47:36.380Z,8.38
2023-04-10T01:50:04.200Z,7.92
2023-04-10T01:52:31.682Z,7.78
2023-04-10T01:54:58.565Z,7.88
2023-04-10T01:57:25.242Z,7.56
2023-04-10T01:59:51.646Z,7.60
2023-04-10T02:02:18.209Z,7.44
2023-04-10T02:04:47.002Z,7.14
2023-04-10T02:07:27.333Z,7.27
2023-04-10T02:10:02.410Z,7.10
2023-04-10T02:12:31.400Z,6.87
2023-04-10T02:15:01.846Z,6.67
2023-04-10T02:17:31.516Z,6.53
2023-04-10T02:19:59.721Z,6.35
2023-04-10T02:22:26.495Z,6.26
2023-04-10T02:24:53.929Z,6.24
2023-04-10T02:27:28.033Z,6.17
2023-04-10T02:29:54.510Z,6.12
2023-04-10T02:32:21.161Z,6.09
2023-04-10T02:34:47.598Z,5.95
2023-04-10T02:37:14.077Z,5.79
2023-04-10T02:39:40.750Z,5.72
2023-04-10T02:42:07.215Z,5.70
2023-04-10T02:44:33.766Z,5.63
2023-04-10T02:47:00.330Z,5.53
2023-04-10T02:49:27.264Z,5.51
2023-04-10T02:51:53.708Z,5.51
2023-04-10T02:54:20.400Z,5.49
2023-04-10T02:56:47.248Z,5.44
2023-04-10T02:59:13.689Z,5.50
2023-04-10T03:01:40.964Z,5.31
2023-04-10T03:04:07.898Z,5.34
2023-04-10T03:06:34.432Z,5.14
2023-04-10T03:09:01.128Z,5.15
2023-04-10T03:11:27.522Z,4.94
2023-04-10T03:13:54.153Z,4.92
2023-04-10T03:16:20.942Z,4.76
2023-04-10T03:18:47.391Z,4.72
2023-04-10T03:21:13.816Z,4.64
2023-04-10T03:23:40.362Z,4.43
2023-04-10T03:26:06.983Z,4.32
2023-04-10T03:28:36.479Z,4.26
2023-04-10T03:31:04.328Z,4.22
2023-04-10T03:33:30.980Z,4.23
2023-04-10T03:35:58.070Z,4.15
2023-04-10T03:38:24.652Z,4.10
2023-04-10T03:40:51.155Z,4.08
2023-04-10T03:43:17.612Z,4.08
2023-04-10T03:45:44.056Z,4.06
2023-04-10T03:48:10.534Z,4.03
2023-04-10T03:50:37.084Z,4.02
2023-04-10T03:53:03.449Z,4.04
2023-04-10T03:55:29.923Z,4.05
2023-04-10T03:57:56.300Z,4.07
2023-04-10T04:00:24.555Z,4.07
2023-04-10T04:02:51.896Z,4.08
2023-04-10T04:05:18.677Z,4.11
2023-04-10T04:07:45.374Z,4.12
2023-04-10T04:10:12.241Z,4.13
2023-04-10T04:12:38.607Z,4.21
2023-04-10T04:15:05.333Z,4.23
2023-04-10T04:17:31.854Z,4.23
2023-04-10T04:19:58.292Z,4.21
2023-04-10T04:22:24.812Z,4.24
2023-04-10T04:24:52.503Z,4.23
2023-04-10T04:27:21.779Z,4.20
2023-04-10T04:29:48.324Z,4.21
2023-04-10T04:32:15.142Z,4.21
2023-04-10T04:34:41.709Z,4.19
2023-04-10T04:37:08.116Z,4.20
2023-04-10T04:39:34.470Z,4.22
2023-04-10T04:42:01.397Z,4.27
2023-04-10T04:44:27.756Z,4.32
2023-04-10T04:46:54.097Z,4.34
2023-04-10T04:49:20.449Z,4.40
2023-04-10T04:51:46.878Z,4.47
2023-04-10T04:54:13.236Z,4.53
2023-04-10T04:56:39.692Z,4.63
2023-04-10T04:59:06.072Z,4.70
2023-04-10T05:01:32.850Z,4.69
2023-04-10T05:03:59.369Z,4.83
2023-04-10T05:06:26.429Z,4.91
2023-04-10T05:08:53.194Z,4.99
2023-04-10T05:11:19.917Z,5.04
2023-04-10T05:13:46.386Z,5.22
2023-04-10T05:16:12.876Z,5.40
2023-04-10T05:18:39.406Z,5.45
2023-04-10T05:21:06.093Z,5.56
2023-04-10T05:23:32.518Z,5.50
2023-04-10T05:25:58.965Z,5.56
2023-04-10T05:28:25.426Z,5.46
2023-04-10T05:30:52.082Z,5.53
2023-04-10T05:33:18.474Z,5.51
2023-04-10T05:35:46.333Z,5.60
2023-04-10T05:38:12.893Z,5.80
2023-04-10T05:40:39.338Z,5.70
2023-04-10T05:43:05.957Z,5.81
2023-04-10T05:45:32.430Z,5.45
2023-04-10T05:47:58.886Z,5.61
2023-04-10T05:50:25.333Z,5.68
2023-04-10T05:52:51.776Z,5.89
2023-04-10T05:55:18.336Z,6.11
2023-04-10T05:57:44.776Z,6.19
2023-04-10T06:00:11.949Z,6.39
2023-04-10T06:02:39.146Z,6.48
2023-04-10T06:05:06.460Z,6.50
2023-04-10T06:07:33.243Z,6.58
2023-04-10T06:09:59.647Z,6.70
2023-04-10T06:12:26.010Z,6.94
2023-04-10T06:14:52.387Z,6.89
2023-04-10T06:17:21.150Z,6.97
2023-04-10T06:19:47.882Z,7.12
2023-04-10T06:22:14.229Z,7.13
2023-04-10T06:24:40.634Z,7.14
2023-04-10T06:27:07.172Z,7.24
2023-04-10T06:29:33.537Z,7.47
2023-04-10T06:32:00.509Z,7.62
2023-04-10T06:34:27.388Z,7.76
2023-04-10T06:36:53.990Z,7.99
2023-04-10T06:39:20.359Z,8.09
2023-04-10T06:41:46.826Z,8.29
2023-04-10T06:44:13.288Z,8.50
2023-04-10T06:46:39.666Z,8.84
2023-04-10T06:49:06.236Z,9.05
2023-04-10T06:51:32.761Z,9.29
2023-04-10T06:53:59.179Z,9.60
2023-04-10T06:56:25.926Z,9.82
2023-04-10T06:58:52.464Z,10.21
2023-04-10T07:01:19.142Z,10.53
2023-04-10T07:03:45.906Z,10.94
2023-04-10T07:06:12.707Z,11.35
2023-04-10T07:08:39.175Z,11.97
2023-04-10T07:11:05.940Z,12.68
2023-04-10T07:13:32.351Z,13.38
2023-04-10T07:15:58.764Z,14.40
2023-04-10T07:18:25.215Z,15.23
2023-04-10T07:20:51.850Z,16.00
2023-04-10T07:23:19.598Z,16.69
2023-04-10T07:25:46.512Z,17.00
2023-04-10T07:28:12.888Z,17.29
2023-04-10T07:30:39.264Z,17.87
2023-04-10T07:33:06.181Z,18.60
2023-04-10T07:35:32.667Z,18.85
2023-04-10T07:37:59.070Z,18.57
2023-04-10T07:40:25.581Z,18.82
2023-04-10T07:42:53.905Z,19.38
2023-04-10T07:45:20.529Z,19.69
2023-04-10T07:47:46.962Z,20.29
2023-04-10T07:50:13.394Z,20.51
2023-04-10T07:52:39.780Z,20.55
2023-04-10T07:55:06.594Z,20.19
2023-04-10T07:57:33.281Z,20.65
2023-04-10T07:59:59.803Z,20.75
2023-04-10T08:02:26.529Z,20.95
2023-04-10T08:04:53.209Z,21.06
2023-04-10T08:07:21.256Z,21.37
2023-04-10T08:09:47.686Z,21.62
2023-04-10T08:12:14.132Z,21.41
2023-04-10T08:14:40.864Z,21.69
2023-04-10T08:17:07.384Z,22.16
2023-04-10T08:19:33.741Z,22.11
2023-04-10T08:22:00.209Z,22.36
2023-04-10T08:24:26.614Z,22.56
2023-04-10T08:26:53.252Z,22.89
2023-04-10T08:29:19.687Z,22.51
2023-04-10T08:31:46.123Z,22.50
2023-04-10T08:34:12.529Z,22.97
2023-04-10T08:36:39.309Z,22.85
2023-04-10T08:39:05.680Z,21.88
2023-04-10T08:41:32.203Z,21.91
2023-04-10T08:43:58.700Z,22.41
2023-04-10T08:46:28.143Z,22.60
2023-04-10T08:49:02.550Z,22.89
2023-04-10T08:51:43.914Z,23.09
2023-04-10T08:54:19.952Z,23.30
2023-04-10T08:56:51.256Z,23.42
2023-04-10T08:59:18.284Z,23.54
2023-04-10T09:01:46.793Z,23.62
2023-04-10T09:04:14.132Z,23.25
2023-04-10T09:06:40.633Z,23.30
2023-04-10T09:09:07.120Z,23.59
2023-04-10T09:11:51.688Z,24.00
2023-04-10T09:14:29.681Z,23.80
2023-04-10T09:17:13.811Z,23.36
2023-04-10T09:19:40.965Z,23.68
2023-04-10T09:22:07.472Z,22.60
2023-04-10T09:24:42.872Z,21.40
2023-04-10T09:27:10.027Z,21.04
2023-04-10T09:29:45.008Z,21.79
2023-04-10T09:32:12.519Z,22.17
2023-04-10T09:34:53.806Z,22.55
2023-04-10T09:37:22.588Z,22.82
2023-04-10T09:39:49.038Z,22.68
2023-04-10T09:42:15.556Z,22.91
2023-04-10T09:44:42.800Z,23.17
2023-04-10T09:47:21.700Z,22.89
2023-04-10T09:49:55.918Z,22.76
2023-04-10T09:52:26.212Z,22.44
2023-04-10T09:54:59.458Z,22.30
2023-04-10T09:57:27.617Z,22.13
2023-04-10T09:59:56.308Z,20.97
2023-04-10T10:02:25.704Z,21.66
2023-04-10T10:04:52.953Z,21.79
2023-04-10T10:07:21.223Z,21.92
2023-04-10T10:09:49.589Z,22.05
2023-04-10T10:12:19.157Z,22.22
2023-04-10T10:14:57.668Z,22.22
2023-04-10T10:17:28.626Z,22.47
2023-04-10T10:20:04.687Z,22.65
2023-04-10T10:22:32.352Z,22.37
2023-04-10T10:25:00.618Z,22.65
2023-04-10T10:27:30.742Z,22.71
2023-04-10T10:30:02.950Z,22.73
2023-04-10T10:32:32.244Z,22.73
2023-04-10T10:35:01.294Z,22.81
2023-04-10T10:37:29.677Z,22.88
2023-04-10T10:40:14.836Z,22.19
2023-04-10T10:43:13.545Z,22.27
2023-04-10T10:45:52.471Z,22.41
2023-04-10T10:48:18.978Z,22.58
2023-04-10T10:50:53.810Z,22.32
2023-04-10T10:53:41.169Z,22.57
2023-04-10T10:56:19.839Z,22.36
2023-04-10T10:58:48.099Z,22.01
2023-04-10T11:01:15.691Z,21.59
2023-04-10T11:03:44.433Z,21.82
2023-04-10T11:06:13.048Z,21.53
2023-04-10T11:08:45.885Z,21.37
2023-04-10T11:11:15.751Z,21.76
2023-04-10T11:13:57.380Z,21.83
2023-04-10T11:16:43.827Z,22.26
2023-04-10T11:19:16.408Z,22.16
2023-04-10T11:22:07.983Z,22.40
2023-04-10T11:25:00.615Z,22.71
2023-04-10T11:27:40.481Z,23.03
2023-04-10T11:30:33.045Z,22.75
2023-04-10T11:33:02.044Z,22.68
2023-04-10T11:35:29.038Z,21.87
2023-04-10T11:38:12.080Z,22.05
2023-04-10T11:40:55.046Z,22.25
2023-04-10T11:43:22.062Z,22.16
2023-04-10T11:45:49.225Z,22.30
2023-04-10T11:48:17.370Z,22.39
2023-04-10T11:50:43.875Z,22.23
2023-04-10T11:53:20.324Z,22.04
2023-04-10T11:55:47.197Z,22.01
2023-04-10T11:58:23.538Z,22.09
2023-04-10T12:01:05.486Z,22.49
2023-04-10T12:03:37.216Z,22.34
2023-04-10T12:06:07.190Z,22.43
2023-04-10T12:08:34.877Z,22.64
2023-04-10T12:11:01.742Z,22.77
2023-04-10T12:13:29.840Z,23.25
2023-04-10T12:16:06.610Z,23.33
2023-04-10T12:18:33.824Z,23.55
2023-04-10T12:21:01.182Z,23.66
2023-04-10T12:23:29.452Z,23.78
2023-04-10T12:26:10.227Z,23.47
2023-04-10T12:28:37.928Z,22.53
2023-04-10T12:31:05.043Z,22.71
2023-04-10T12:33:31.662Z,22.75
2023-04-10T12:35:59.186Z,22.57
2023-04-10T12:38:43.126Z,23.18
2023-04-10T12:41:11.318Z,23.25
2023-04-10T12:43:39.793Z,23.19
2023-04-10T12:46:07.744Z,23.32
2023-04-10T12:48:34.375Z,23.20
2023-04-10T12:51:01.317Z,22.76
2023-04-10T12:53:28.137Z,21.95
2023-04-10T12:56:03.579Z,22.58
2023-04-10T12:58:33.492Z,22.47
2023-04-10T13:01:07.896Z,22.11
2023-04-10T13:03:36.303Z,21.98
2023-04-10T13:06:06.285Z,22.43
2023-04-10T13:08:32.987Z,22.69
2023-04-10T13:11:06.887Z,23.06
2023-04-10T13:13:33.336Z,23.61
2023-04-10T13:16:01.399Z,23.89
2023-04-10T13:18:27.977Z,24.34
2023-04-10T13:20:54.514Z,24.72
2023-04-10T13:23:20.989Z,24.65
2023-04-10T13:25:47.545Z,24.56
2023-04-10T13:28:15.738Z,24.78
2023-04-10T13:30:42.456Z,24.58
2023-04-10T13:33:09.725Z,24.46
2023-04-10T13:35:36.478Z,24.14
2023-04-10T13:38:03.862Z,24.09
2023-04-10T13:40:30.689Z,23.99
2023-04-10T13:42:57.139Z,24.08
2023-04-10T13:45:23.656Z,23.56
2023-04-10T13:47:50.278Z,23.38
2023-04-10T13:50:16.999Z,23.48
2023-04-10T13:52:43.358Z,23.40
2023-04-10T13:55:10.394Z,23.48
2023-04-10T13:57:37.014Z,23.14
2023-04-10T14:00:04.638Z,22.88
2023-04-10T14:02:31.500Z,23.14
2023-04-10T14:04:58.040Z,22.79
2023-04-10T14:07:24.453Z,22.26
2023-04-10T14:09:51.013Z,22.62
2023-04-10T14:12:19.119Z,22.83
2023-04-10T14:14:46.085Z,23.11
2023-04-10T14:17:12.591Z,23.21
2023-04-10T14:19:39.776Z,23.39
2023-04-10T14:22:06.464Z,23.08
2023-04-10T14:24:33.193Z,23.42
2023-04-10T14:27:01.850Z,23.35
2023-04-10T14:29:36.340Z,23.26
2023-04-10T14:32:06.074Z,23.03
2023-04-10T14:34:32.450Z,23.13
2023-04-10T14:36:59.680Z,23.15
2023-04-10T14:39:26.260Z,23.46
2023-04-10T14:41:52.918Z,23.49
2023-04-10T14:44:19.587Z,23.64
2023-04-10T14:46:46.265Z,23.18
2023-04-10T14:49:13.771Z,23.05
2023-04-10T14:51:43.287Z,23.06
2023-04-10T14:54:09.768Z,22.93
2023-04-10T14:56:36.400Z,22.80
2023-04-10T14:59:02.882Z,22.53
2023-04-10T15:01:29.296Z,22.35
2023-04-10T15:03:56.125Z,22.14
2023-04-10T15:06:22.768Z,22.50
2023-04-10T15:08:49.337Z,22.68
2023-04-10T15:11:15.845Z,22.80
2023-04-10T15:13:42.263Z,22.71
2023-04-10T15:16:08.973Z,22.05
2023-04-10T15:18:35.544Z,22.34
2023-04-10T15:21:01.935Z,22.70
2023-04-10T15:23:28.368Z,22.54
2023-04-10T15:25:55.128Z,22.40
2023-04-10T15:28:21.667Z,22.40
2023-04-10T15:30:49.969Z,22.50
2023-04-10T15:33:17.292Z,22.61
2023-04-10T15:35:48.005Z,22.71
2023-04-10T15:38:14.523Z,22.77
2023-04-10T15:40:40.972Z,22.64
2023-04-10T15:43:07.482Z,22.54
2023-04-10T15:45:36.286Z,22.62
2023-04-10T15:48:04.574Z,22.50
2023-04-10T15:50:31.255Z,22.39
2023-04-10T15:52:57.708Z,22.03
2023-04-10T15:55:24.227Z,22.07
2023-04-10T15:57:50.814Z,22.06
2023-04-10T16:00:17.732Z,22.05
2023-04-10T16:02:44.581Z,22.00
2023-04-10T16:05:11.541Z,21.74
2023-04-10T16:07:39.570Z,21.63
2023-04-10T16:10:06.666Z,21.70
2023-04-10T16:12:33.042Z,21.66
2023-04-10T16:14:59.735Z,21.55
2023-04-10T16:17:26.251Z,21.44
2023-04-10T16:19:52.802Z,21.48
2023-04-10T16:22:19.344Z,21.49
2023-04-10T16:24:45.793Z,21.44
2023-04-10T16:27:12.254Z,21.29
2023-04-10T16:29:38.841Z,21.27
2023-04-10T16:32:05.321Z,21.08
2023-04-10T16:34:31.933Z,21.11
2023-04-10T16:36:58.388Z,20.96
2023-04-10T16:39:24.891Z,20.79
2023-04-10T16:41:51.310Z,20.71
2023-04-10T16:44:17.936Z,20.80
2023-04-10T16:46:44.379Z,20.74
2023-04-10T16:49:11.204Z,20.72
2023-04-10T16:51:37.636Z,20.53
2023-04-10T16:54:04.149Z,20.55
2023-04-10T16:56:33.554Z,20.45
2023-04-10T16:59:00.004Z,20.37
2023-04-10T17:01:27.071Z,20.29
2023-04-10T17:03:54.554Z,20.20
2023-04-10T17:06:21.173Z,20.13
2023-04-10T17:08:48.091Z,20.09
2023-04-10T17:11:14.908Z,19.93
2023-04-10T17:13:42.214Z,19.89
2023-04-10T17:16:09.376Z,19.69
2023-04-10T17:18:35.939Z,19.69
2023-04-10T17:21:02.489Z,19.62
2023-04-10T17:23:29.421Z,19.49
2023-04-10T17:25:55.812Z,19.39
2023-04-10T17:28:22.176Z,19.45
2023-04-10T17:30:48.600Z,19.32
2023-04-10T17:33:15.269Z,19.31
2023-04-10T17:35:42.191Z,19.23
2023-04-10T17:38:08.697Z,19.14
2023-04-10T17:40:35.179Z,19.09
2023-04-10T17:43:01.683Z,19.01
2023-04-10T17:45:28.053Z,19.00
2023-04-10T17:47:54.574Z,18.92
2023-04-10T17:50:21.352Z,18.87
2023-04-10T17:52:47.791Z,18.78
2023-04-10T17:55:18.372Z,18.84
2023-04-10T17:57:47.227Z,18.70
2023-04-10T18:00:20.046Z,18.65
2023-04-10T18:02:48.227Z,18.67
2023-04-10T18:05:15.450Z,18.61
2023-04-10T18:07:42.013Z,18.61
2023-04-10T18:10:11.153Z,18.57
2023-04-10T18:12:38.044Z,18.46
2023-04-10T18:15:05.251Z,18.42
2023-04-10T18:17:31.778Z,18.34
2023-04-10T18:19:58.192Z,18.21
2023-04-10T18:22:24.600Z,18.18
2023-04-10T18:24:51.077Z,18.17
2023-04-10T18:27:17.486Z,18.08
2023-04-10T18:29:45.582Z,18.05
2023-04-10T18:32:12.434Z,17.99
2023-04-10T18:34:39.201Z,17.88
2023-04-10T18:37:06.853Z,17.83
2023-04-10T18:39:38.180Z,17.78
2023-04-10T18:42:08.127Z,17.76
2023-04-10T18:44:34.943Z,17.68
2023-04-10T18:47:04.685Z,17.62
2023-04-10T18:49:34.092Z,17.63
2023-04-10T18:52:00.661Z,17.60
2023-04-10T18:54:27.492Z,17.54
2023-04-10T18:56:54.147Z,17.59
2023-04-10T18:59:20.690Z,17.58
2023-04-10T19:01:47.445Z,17.64
2023-04-10T19:04:14.280Z,17.71
2023-04-10T19:06:42.725Z,17.76
2023-04-10T19:09:09.165Z,17.71
2023-04-10T19:11:35.572Z,17.69
2023-04-10T19:14:02.045Z,17.67
2023-04-10T19:16:28.639Z,17.66
2023-04-10T19:18:55.498Z,17.61
2023-04-10T19:21:22.441Z,17.64
2023-04-10T19:23:49.277Z,17.62
2023-04-10T19:26:16.003Z,17.59
2023-04-10T19:28:42.439Z,17.56
2023-04-10T19:31:09.111Z,17.52
2023-04-10T19:33:35.575Z,17.48
2023-04-10T19:36:02.073Z,17.46
2023-04-10T19:38:29.670Z,17.42
2023-04-10T19:40:56.848Z,17.42
2023-04-10T19:43:23.391Z,17.35
2023-04-10T19:45:50.313Z,17.33
2023-04-10T19:48:16.795Z,17.30
2023-04-10T19:50:43.210Z,17.25
2023-04-10T19:53:12.803Z,17.18
2023-04-10T19:55:40.779Z,17.12
2023-04-10T19:58:13.286Z,17.11
2023-04-10T20:00:47.469Z,17.13
2023-04-10T20:03:15.981Z,17.17
2023-04-10T20:05:42.714Z,17.17
2023-04-10T20:08:09.194Z,17.16
2023-04-10T20:10:35.603Z,17.16
2023-04-10T20:13:02.245Z,16.85
2023-04-10T20:15:28.681Z,16.85
2023-04-10T20:17:55.114Z,16.94
2023-04-10T20:20:21.857Z,17.01
2023-04-10T20:22:48.312Z,17.03
2023-04-10T20:25:14.864Z,17.01
2023-04-10T20:27:41.246Z,17.01
2023-04-10T20:30:08.180Z,17.03
2023-04-10T20:32:34.748Z,16.97
2023-04-10T20:35:01.318Z,16.84
2023-04-10T20:37:27.894Z,16.67
2023-04-10T20:39:54.342Z,16.77
2023-04-10T20:42:20.770Z,16.80
2023-04-10T20:44:47.205Z,16.81
2023-04-10T20:47:13.770Z,16.78
2023-04-10T20:49:40.381Z,16.79
2023-04-10T20:52:07.258Z,16.78
2023-04-10T20:54:33.752Z,16.74
2023-04-10T20:57:01.882Z,16.67
2023-04-10T20:59:29.336Z,16.61
2023-04-10T21:01:56.164Z,16.65
2023-04-10T21:04:22.684Z,16.67
2023-04-10T21:06:49.102Z,16.72
2023-04-10T21:09:15.795Z,16.71
2023-04-10T21:11:42.171Z,16.73
2023-04-10T21:14:08.604Z,16.75
2023-04-10T21:16:37.441Z,16.69
2023-04-10T21:19:03.948Z,16.79
2023-04-10T21:21:31.130Z,16.75
2023-04-10T21:23:57.491Z,16.77
2023-04-10T21:26:23.914Z,16.61
2023-04-10T21:28:50.303Z,16.72
2023-04-10T21:31:16.729Z,16.72
2023-04-10T21:33:44.018Z,16.73
2023-04-10T21:36:10.942Z,16.76
2023-04-10T21:38:37.561Z,16.71
2023-04-10T21:41:05.803Z,16.72
2023-04-10T21:43:32.223Z,16.69
2023-04-10T21:46:00.354Z,16.72
2023-04-10T21:48:28.122Z,16.75
2023-04-10T21:50:54.478Z,16.72
2023-04-10T21:53:20.925Z,16.73
2023-04-10T21:55:47.351Z,16.77
2023-04-10T21:58:13.817Z,16.75
2023-04-10T22:00:41.467Z,16.76
2023-04-10T22:03:09.762Z,16.72
2023-04-10T22:05:36.421Z,16.67
2023-04-10T22:08:03.101Z,16.71
2023-04-10T22:10:29.648Z,16.73
2023-04-10T22:12:56.314Z,16.73
2023-04-10T22:15:22.717Z,16.65
2023-04-10T22:17:49.426Z,16.51
2023-04-10T22:20:16.227Z,16.50
2023-04-10T22:22:42.645Z,16.41
2023-04-10T22:25:09.295Z,16.29
2023-04-10T22:27:35.653Z,16.23
2023-04-10T22:30:03.903Z,16.27
2023-04-10T22:32:31.543Z,16.27
2023-04-10T22:35:01.134Z,16.26
2023-04-10T22:37:27.855Z,16.26
2023-04-10T22:39:56.098Z,16.35
2023-04-10T22:42:22.744Z,16.36
2023-04-10T22:44:49.253Z,16.27
2023-04-10T22:47:15.717Z,16.27
2023-04-10T22:49:42.377Z,16.13
2023-04-10T22:52:08.835Z,16.19
2023-04-10T22:54:35.376Z,16.16
2023-04-10T22:57:01.929Z,16.16
2023-04-10T22:59:28.341Z,16.02
2023-04-10T23:01:54.827Z,16.16
2023-04-10T23:04:21.434Z,15.98
2023-04-10T23:06:48.193Z,16.02
2023-04-10T23:09:14.677Z,16.03
2023-04-10T23:11:41.103Z,16.01
2023-04-10T23:14:07.628Z,15.90
2023-04-10T23:16:34.300Z,16.10
2023-04-10T23:19:00.712Z,16.11
2023-04-10T23:21:27.639Z,16.18
2023-04-10T23:23:54.089Z,16.12
2023-04-10T23:26:20.872Z,16.19
2023-04-10T23:28:47.702Z,16.15
2023-04-10T23:31:14.386Z,16.12
2023-04-10T23:33:40.757Z,16.10
2023-04-10T23:36:07.591Z,16.24
2023-04-10T23:38:34.018Z,16.32
2023-04-10T23:41:00.376Z,16.35
2023-04-10T23:43:26.762Z,16.40
2023-04-10T23:45:53.149Z,16.36
2023-04-10T23:48:19.658Z,16.28
2023-04-10T23:50:46.033Z,16.43
2023-04-10T23:53:14.465Z,16.46
2023-04-10T23:55:41.934Z,16.40
2023-04-10T23:58:08.541Z,16.45
